createdAt,value
2018-08-02T00:00:36.915Z,934.82
2018-08-02T00:01:36.790Z,934.84
2018-08-02T00:02:36.932Z,934.90
2018-08-02T00:03:37.004Z,934.98
2018-08-02T00:04:36.877Z,934.92
2018-08-02T00:05:36.846Z,935.00
2018-08-02T00:06:36.862Z,934.99
2018-08-02T00:07:36.860Z,935.06
2018-08-02T00:08:37.015Z,935.04
2018-08-02T00:09:36.920Z,935.05
2018-08-02T00:10:36.912Z,935.05
2018-08-02T00:11:36.932Z,935.08
2018-08-02T00:12:36.906Z,935.12
2018-08-02T00:13:36.970Z,935.09
2018-08-02T00:14:36.932Z,935.09
2018-08-02T00:15:36.945Z,935.09
2018-08-02T00:16:36.982Z,934.98
2018-08-02T00:17:37.128Z,935.01
2018-08-02T00:18:37.011Z,935.02
2018-08-02T00:19:36.996Z,935.01
2018-08-02T00:20:36.983Z,935.09
2018-08-02T00:21:37.025Z,935.06
2018-08-02T00:22:37.142Z,935.09
2018-08-02T00:23:37.048Z,935.05
2018-08-02T00:24:37.034Z,935.10
2018-08-02T00:25:37.157Z,935.10
2018-08-02T00:26:37.063Z,935.06
2018-08-02T00:27:37.167Z,935.05
2018-08-02T00:28:37.110Z,935.06
2018-08-02T00:29:37.070Z,935.05
2018-08-02T00:30:37.162Z,935.03
2018-08-02T00:31:37.109Z,935.06
2018-08-02T00:32:37.197Z,935.01
2018-08-02T00:33:37.146Z,935.01
2018-08-02T00:34:37.145Z,935.00
2018-08-02T00:35:37.160Z,934.95
2018-08-02T00:36:37.196Z,934.98
2018-08-02T00:37:37.297Z,934.88
2018-08-02T00:38:37.158Z,934.94
2018-08-02T00:39:37.228Z,934.88
2018-08-02T00:40:37.178Z,934.90
2018-08-02T00:41:37.199Z,934.84
2018-08-02T00:42:37.310Z,934.85
2018-08-02T00:43:37.235Z,934.89
2018-08-02T00:44:37.265Z,934.88
2018-08-02T00:45:37.253Z,934.96
2018-08-02T00:46:37.343Z,935.01
2018-08-02T00:47:37.301Z,935.03
2018-08-02T00:48:37.281Z,934.99
2018-08-02T00:49:37.293Z,935.00
2018-08-02T00:50:37.280Z,935.00
2018-08-02T00:51:37.517Z,935.04
2018-08-02T00:52:37.363Z,935.02
2018-08-02T00:53:37.338Z,935.05
2018-08-02T00:54:37.324Z,935.07
2018-08-02T00:55:37.349Z,934.99
2018-08-02T00:56:37.460Z,935.03
2018-08-02T00:57:37.376Z,934.98
2018-08-02T00:58:37.446Z,934.99
2018-08-02T00:59:37.416Z,934.96
2018-08-02T01:00:37.376Z,934.97
2018-08-02T01:01:37.521Z,934.90
2018-08-02T01:02:37.440Z,934.89
2018-08-02T01:03:37.405Z,934.86
2018-08-02T01:04:37.466Z,934.82
2018-08-02T01:05:37.461Z,934.79
2018-08-02T01:06:37.553Z,934.80
2018-08-02T01:07:37.481Z,934.86
2018-08-02T01:08:37.448Z,934.89
2018-08-02T01:09:37.462Z,934.99
2018-08-02T01:10:37.521Z,935.07
2018-08-02T01:11:37.608Z,935.05
2018-08-02T01:12:37.517Z,935.04
2018-08-02T01:13:37.508Z,935.00
2018-08-02T01:14:37.547Z,935.05
2018-08-02T01:15:37.533Z,935.06
2018-08-02T01:16:37.681Z,935.09
2018-08-02T01:17:37.561Z,935.08
2018-08-02T01:18:37.558Z,935.10
2018-08-02T01:19:37.628Z,935.09
2018-08-02T01:20:37.604Z,935.03
2018-08-02T01:21:37.619Z,935.00
2018-08-02T01:22:37.723Z,935.03
2018-08-02T01:23:37.627Z,935.02
2018-08-02T01:24:37.639Z,935.04
2018-08-02T01:25:37.652Z,935.04
2018-08-02T01:26:37.652Z,935.01
2018-08-02T01:27:37.695Z,935.03
2018-08-02T01:28:37.749Z,934.96
2018-08-02T01:29:37.672Z,934.96
2018-08-02T01:30:37.694Z,934.99
2018-08-02T01:31:37.696Z,934.98
2018-08-02T01:32:37.704Z,934.97
2018-08-02T01:33:37.853Z,935.00
2018-08-02T01:34:37.798Z,934.96
2018-08-02T01:35:37.729Z,934.94
2018-08-02T01:36:37.756Z,934.94
2018-08-02T01:37:37.802Z,934.95
2018-08-02T01:38:37.916Z,934.95
2018-08-02T01:39:37.894Z,934.92
2018-08-02T01:40:37.785Z,934.92
2018-08-02T01:41:37.914Z,934.90
2018-08-02T01:42:37.801Z,934.85
2018-08-02T01:43:37.964Z,934.86
2018-08-02T01:44:37.834Z,934.86
2018-08-02T01:45:37.835Z,934.77
2018-08-02T01:46:37.842Z,934.82
2018-08-02T01:47:37.897Z,934.83
2018-08-02T01:48:38.016Z,934.86
2018-08-02T01:49:37.908Z,934.86
2018-08-02T01:50:37.903Z,934.90
2018-08-02T01:51:37.913Z,934.91
2018-08-02T01:52:37.967Z,934.87
2018-08-02T01:53:38.141Z,934.86
2018-08-02T01:54:37.945Z,934.94
2018-08-02T01:55:38.003Z,934.86
2018-08-02T01:56:37.986Z,934.89
2018-08-02T01:57:37.945Z,934.89
2018-08-02T01:58:38.101Z,934.92
2018-08-02T01:59:38.003Z,934.93
2018-08-02T02:00:38.002Z,934.96
2018-08-02T02:01:37.985Z,935.00
2018-08-02T02:02:38.081Z,934.99
2018-08-02T02:03:38.131Z,935.01
2018-08-02T02:04:38.028Z,935.00
2018-08-02T02:05:38.047Z,934.98
2018-08-02T02:06:38.048Z,935.02
2018-08-02T02:07:38.067Z,934.97
2018-08-02T02:08:38.162Z,934.96
2018-08-02T02:09:38.077Z,935.02
2018-08-02T02:10:38.076Z,935.01
2018-08-02T02:11:38.108Z,935.04
2018-08-02T02:12:38.095Z,935.04
2018-08-02T02:13:38.216Z,935.01
2018-08-02T02:14:38.162Z,935.06
2018-08-02T02:16:38.197Z,935.02
2018-08-02T02:17:38.173Z,935.04
2018-08-02T02:18:38.222Z,934.98
2018-08-02T02:19:38.386Z,934.99
2018-08-02T02:20:38.210Z,934.92
2018-08-02T02:21:38.199Z,934.88
2018-08-02T02:22:38.335Z,934.87
2018-08-02T02:23:38.240Z,934.86
2018-08-02T02:24:38.480Z,934.84
2018-08-02T02:25:38.262Z,934.85
2018-08-02T02:26:38.251Z,934.86
2018-08-02T02:27:38.263Z,934.86
2018-08-02T02:28:38.285Z,934.86
2018-08-02T02:29:38.373Z,934.84
2018-08-02T02:30:38.300Z,934.83
2018-08-02T02:31:38.321Z,934.81
2018-08-02T02:32:38.311Z,934.83
2018-08-02T02:33:38.440Z,934.82
2018-08-02T02:34:38.337Z,934.86
2018-08-02T02:35:38.407Z,934.87
2018-08-02T02:36:38.358Z,934.87
2018-08-02T02:37:38.360Z,934.91
2018-08-02T02:38:38.466Z,934.95
2018-08-02T02:39:38.422Z,934.98
2018-08-02T02:40:38.452Z,934.95
2018-08-02T02:41:38.402Z,934.93
2018-08-02T02:42:38.458Z,934.83
2018-08-02T02:43:38.547Z,934.81
2018-08-02T02:44:38.543Z,934.72
2018-08-02T02:45:38.447Z,934.67
2018-08-02T02:46:38.580Z,934.66
2018-08-02T02:47:38.483Z,934.66
2018-08-02T02:48:38.479Z,934.66
2018-08-02T02:49:38.491Z,934.69
2018-08-02T02:50:38.557Z,934.64
2018-08-02T02:51:38.495Z,934.69
2018-08-02T02:52:38.637Z,934.67
2018-08-02T02:53:38.532Z,934.69
2018-08-02T02:54:38.565Z,934.65
2018-08-02T02:55:38.654Z,934.67
2018-08-02T02:56:38.579Z,934.66
2018-08-02T02:57:38.582Z,934.65
2018-08-02T02:58:38.582Z,934.65
2018-08-02T02:59:38.600Z,934.64
2018-08-02T03:00:38.703Z,934.63
2018-08-02T03:01:38.732Z,934.56
2018-08-02T03:02:38.624Z,934.57
2018-08-02T03:03:38.636Z,934.56
2018-08-02T03:04:38.655Z,934.59
2018-08-02T03:05:38.668Z,934.56
2018-08-02T03:06:38.763Z,934.56
2018-08-02T03:07:38.690Z,934.54
2018-08-02T03:08:38.708Z,934.52
2018-08-02T03:09:38.683Z,934.55
2018-08-02T03:10:38.700Z,934.56
2018-08-02T03:11:38.812Z,934.61
2018-08-02T03:12:38.728Z,934.60
2018-08-02T03:13:38.732Z,934.58
2018-08-02T03:14:38.755Z,934.59
2018-08-02T03:15:38.877Z,934.53
2018-08-02T03:16:39.088Z,934.47
2018-08-02T03:17:38.776Z,934.35
2018-08-02T03:18:38.795Z,934.24
2018-08-02T03:19:38.923Z,934.07
2018-08-02T03:20:38.962Z,934.01
2018-08-02T03:21:39.075Z,934.01
2018-08-02T03:22:38.833Z,934.09
2018-08-02T03:23:38.860Z,934.12
2018-08-02T03:24:38.851Z,934.23
2018-08-02T03:25:38.869Z,934.23
2018-08-02T03:26:39.009Z,934.30
2018-08-02T03:27:38.998Z,934.32
2018-08-02T03:28:38.902Z,934.30
2018-08-02T03:29:38.927Z,934.33
2018-08-02T03:30:38.936Z,934.29
2018-08-02T03:31:39.113Z,934.36
2018-08-02T03:32:38.987Z,934.38
2018-08-02T03:33:38.934Z,934.42
2018-08-02T03:34:38.955Z,934.38
2018-08-02T03:35:39.081Z,934.40
2018-08-02T03:36:39.192Z,934.39
2018-08-02T03:37:39.109Z,934.33
2018-08-02T03:38:39.007Z,934.28
2018-08-02T03:39:39.015Z,934.30
2018-08-02T03:40:39.036Z,934.32
2018-08-02T03:41:39.142Z,934.29
2018-08-02T03:42:39.048Z,934.29
2018-08-02T03:43:39.040Z,934.28
2018-08-02T03:44:39.059Z,934.29
2018-08-02T03:45:39.067Z,934.28
2018-08-02T03:46:39.115Z,934.32
2018-08-02T03:47:39.103Z,934.30
2018-08-02T03:48:39.091Z,934.31
2018-08-02T03:49:39.126Z,934.37
2018-08-02T03:50:39.235Z,934.37
2018-08-02T03:51:39.120Z,934.41
2018-08-02T03:52:39.141Z,934.43
2018-08-02T03:53:39.215Z,934.47
2018-08-02T03:54:39.317Z,934.46
2018-08-02T03:55:39.387Z,934.52
2018-08-02T03:56:39.184Z,934.55
2018-08-02T03:57:39.310Z,934.56
2018-08-02T03:58:39.208Z,934.60
2018-08-02T03:59:39.212Z,934.62
2018-08-02T04:00:39.380Z,934.62
2018-08-02T04:01:39.294Z,934.58
2018-08-02T04:02:39.238Z,934.55
2018-08-02T04:03:39.275Z,934.58
2018-08-02T04:04:39.282Z,934.55
2018-08-02T04:05:39.500Z,934.55
2018-08-02T04:06:39.282Z,934.51
2018-08-02T04:07:39.380Z,934.48
2018-08-02T04:08:39.319Z,934.45
2018-08-02T04:09:39.435Z,934.36
2018-08-02T04:10:39.333Z,934.34
2018-08-02T04:11:39.706Z,934.25
2018-08-02T04:12:39.473Z,934.22
2018-08-02T04:13:39.485Z,934.20
2018-08-02T04:14:39.372Z,934.19
2018-08-02T04:15:39.421Z,934.18
2018-08-02T04:16:39.389Z,934.17
2018-08-02T04:17:39.591Z,934.10
2018-08-02T04:18:39.426Z,934.10
2018-08-02T04:19:39.427Z,934.09
2018-08-02T04:20:39.448Z,934.00
2018-08-02T04:21:39.449Z,933.98
2018-08-02T04:22:39.458Z,933.96
2018-08-02T04:23:39.554Z,933.92
2018-08-02T04:24:39.475Z,933.94
2018-08-02T04:25:39.505Z,933.93
2018-08-02T04:26:39.493Z,933.93
2018-08-02T04:27:39.624Z,933.91
2018-08-02T04:28:39.508Z,933.91
2018-08-02T04:29:39.644Z,933.94
2018-08-02T04:30:39.537Z,933.92
2018-08-02T04:31:39.557Z,933.90
2018-08-02T04:32:39.558Z,933.87
2018-08-02T04:33:39.621Z,933.82
2018-08-02T04:34:39.582Z,933.81
2018-08-02T04:35:39.641Z,933.78
2018-08-02T04:36:39.705Z,933.77
2018-08-02T04:37:39.618Z,933.71
2018-08-02T04:38:39.635Z,933.67
2018-08-02T04:39:39.757Z,933.66
2018-08-02T04:40:39.648Z,933.67
2018-08-02T04:41:39.975Z,933.64
2018-08-02T04:42:39.682Z,933.72
2018-08-02T04:43:39.681Z,933.77
2018-08-02T04:44:39.689Z,933.74
2018-08-02T04:45:39.700Z,933.78
2018-08-02T04:46:39.704Z,933.76
2018-08-02T04:47:39.829Z,933.77
2018-08-02T04:48:39.723Z,933.80
2018-08-02T04:49:39.756Z,933.77
2018-08-02T04:50:39.751Z,933.74
2018-08-02T04:51:39.748Z,933.76
2018-08-02T04:52:39.915Z,933.74
2018-08-02T04:53:39.817Z,933.81
2018-08-02T04:54:39.786Z,933.84
2018-08-02T04:55:39.794Z,933.87
2018-08-02T04:56:39.805Z,933.86
2018-08-02T04:57:39.829Z,933.83
2018-08-02T04:58:39.939Z,933.77
2018-08-02T04:59:39.911Z,933.71
2018-08-02T05:00:39.972Z,933.63
2018-08-02T05:01:39.876Z,933.58
2018-08-02T05:02:39.887Z,933.54
2018-08-02T05:03:39.895Z,933.56
2018-08-02T05:04:40.115Z,933.48
2018-08-02T05:05:39.907Z,933.43
2018-08-02T05:06:39.914Z,933.36
2018-08-02T05:07:39.918Z,933.33
2018-08-02T05:08:39.935Z,933.25
2018-08-02T05:09:39.943Z,933.20
2018-08-02T05:10:40.079Z,933.23
2018-08-02T05:11:39.974Z,933.29
2018-08-02T05:12:40.105Z,933.36
2018-08-02T05:13:40.001Z,933.42
2018-08-02T05:14:39.998Z,933.48
2018-08-02T05:15:40.217Z,933.50
2018-08-02T05:16:40.024Z,933.58
2018-08-02T05:17:40.022Z,933.63
2018-08-02T05:18:40.051Z,933.67
2018-08-02T05:19:40.058Z,933.68
2018-08-02T05:20:40.313Z,933.73
2018-08-02T05:21:40.079Z,933.72
2018-08-02T05:22:40.080Z,933.73
2018-08-02T05:23:40.220Z,933.77
2018-08-02T05:24:40.122Z,933.74
2018-08-02T05:25:40.175Z,933.71
2018-08-02T05:26:40.138Z,933.69
2018-08-02T05:27:40.135Z,933.66
2018-08-02T05:28:40.191Z,933.69
2018-08-02T05:29:40.164Z,933.64
2018-08-02T05:30:40.264Z,933.72
2018-08-02T05:31:40.186Z,933.72
2018-08-02T05:32:40.213Z,933.75
2018-08-02T05:33:40.216Z,933.78
2018-08-02T05:34:40.249Z,933.76
2018-08-02T05:35:40.592Z,933.75
2018-08-02T05:36:40.621Z,933.78
2018-08-02T05:37:40.244Z,933.78
2018-08-02T05:38:40.253Z,933.79
2018-08-02T05:39:40.310Z,933.84
2018-08-02T05:40:40.447Z,933.86
2018-08-02T05:41:40.509Z,933.87
2018-08-02T05:42:40.294Z,933.90
2018-08-02T05:43:40.426Z,933.89
2018-08-02T05:44:40.327Z,933.97
2018-08-02T05:45:40.321Z,934.03
2018-08-02T05:46:40.711Z,934.09
2018-08-02T05:47:40.336Z,934.15
2018-08-02T05:48:40.372Z,934.18
2018-08-02T05:49:40.380Z,934.17
2018-08-02T05:50:40.405Z,934.08
2018-08-02T05:51:40.485Z,933.98
2018-08-02T05:52:40.405Z,933.90
2018-08-02T05:53:40.422Z,933.83
2018-08-02T05:54:40.421Z,933.83
2018-08-02T05:55:40.444Z,933.71
2018-08-02T05:56:40.502Z,933.63
2018-08-02T05:57:40.477Z,933.59
2018-08-02T05:58:40.457Z,933.58
2018-08-02T05:59:40.476Z,933.49
2018-08-02T06:00:40.522Z,933.42
2018-08-02T06:01:40.760Z,933.38
2018-08-02T06:02:40.630Z,933.36
2018-08-02T06:03:40.552Z,933.37
2018-08-02T06:04:40.522Z,933.35
2018-08-02T06:05:40.552Z,933.37
2018-08-02T06:06:40.556Z,933.40
2018-08-02T06:07:40.679Z,933.39
2018-08-02T06:08:40.586Z,933.46
2018-08-02T06:09:40.580Z,933.51
2018-08-02T06:10:40.600Z,933.57
2018-08-02T06:11:40.596Z,933.58
2018-08-02T06:12:40.647Z,933.60
2018-08-02T06:13:40.993Z,933.55
2018-08-02T06:14:40.753Z,933.59
2018-08-02T06:15:40.629Z,933.53
2018-08-02T06:16:40.721Z,933.51
2018-08-02T06:17:40.669Z,933.46
2018-08-02T06:18:40.791Z,933.44
2018-08-02T06:19:40.684Z,933.46
2018-08-02T06:20:40.710Z,933.54
2018-08-02T06:21:40.716Z,933.51
2018-08-02T06:22:40.710Z,933.49
2018-08-02T06:23:40.734Z,933.49
2018-08-02T06:24:40.861Z,933.40
2018-08-02T06:25:40.768Z,933.43
2018-08-02T06:26:40.764Z,933.42
2018-08-02T06:27:40.780Z,933.44
2018-08-02T06:28:40.775Z,933.46
2018-08-02T06:29:41.076Z,933.49
2018-08-02T06:30:40.797Z,933.50
2018-08-02T06:31:40.933Z,933.56
2018-08-02T06:32:40.825Z,933.53
2018-08-02T06:33:40.839Z,933.54
2018-08-02T06:34:41.108Z,933.50
2018-08-02T06:35:40.864Z,933.55
2018-08-02T06:36:40.984Z,933.55
2018-08-02T06:37:40.996Z,933.53
2018-08-02T06:38:40.890Z,933.51
2018-08-02T06:39:41.035Z,933.48
2018-08-02T06:40:41.027Z,933.33
2018-08-02T06:41:40.928Z,933.22
2018-08-02T06:42:40.937Z,933.14
2018-08-02T06:43:40.941Z,933.11
2018-08-02T06:44:41.059Z,933.13
2018-08-02T06:45:40.949Z,933.10
2018-08-02T06:46:40.971Z,933.05
2018-08-02T06:47:40.997Z,933.10
2018-08-02T06:48:41.001Z,933.12
2018-08-02T06:49:41.104Z,933.14
2018-08-02T06:50:41.012Z,933.17
2018-08-02T06:51:41.044Z,933.21
2018-08-02T06:52:41.073Z,933.20
2018-08-02T06:53:41.050Z,933.16
2018-08-02T06:54:41.174Z,933.11
2018-08-02T06:55:41.055Z,933.09
2018-08-02T06:56:41.098Z,933.04
2018-08-02T06:57:41.071Z,933.05
2018-08-02T06:58:41.114Z,933.07
2018-08-02T06:59:41.150Z,933.06
2018-08-02T07:00:41.114Z,933.04
2018-08-02T07:01:41.124Z,933.05
2018-08-02T07:02:41.233Z,933.05
2018-08-02T07:03:41.128Z,933.10
2018-08-02T07:04:41.155Z,933.05
2018-08-02T07:05:41.163Z,933.11
2018-08-02T07:06:41.177Z,933.12
2018-08-02T07:07:41.352Z,933.15
2018-08-02T07:08:41.311Z,933.22
2018-08-02T07:09:41.447Z,933.25
2018-08-02T07:10:41.213Z,933.29
2018-08-02T07:11:41.341Z,933.27
2018-08-02T07:12:41.244Z,933.32
2018-08-02T07:13:41.251Z,933.33
2018-08-02T07:14:41.448Z,933.35
2018-08-02T07:15:41.368Z,933.36
2018-08-02T07:16:41.264Z,933.35
2018-08-02T07:17:41.322Z,933.35
2018-08-02T07:18:41.334Z,933.33
2018-08-02T07:19:41.353Z,933.30
2018-08-02T07:20:41.364Z,933.26
2018-08-02T07:21:41.318Z,933.24
2018-08-02T07:22:41.333Z,933.24
2018-08-02T07:23:41.372Z,933.26
2018-08-02T07:24:41.479Z,933.29
2018-08-02T07:25:41.625Z,933.29
2018-08-02T07:26:41.381Z,933.34
2018-08-02T07:27:41.384Z,933.35
2018-08-02T07:28:41.416Z,933.34
2018-08-02T07:29:41.405Z,933.37
2018-08-02T07:30:41.674Z,933.40
2018-08-02T07:31:41.464Z,933.36
2018-08-02T07:32:41.430Z,933.39
2018-08-02T07:33:41.457Z,933.42
2018-08-02T07:34:41.469Z,933.42
2018-08-02T07:35:41.621Z,933.38
2018-08-02T07:36:41.490Z,933.39
2018-08-02T07:37:41.488Z,933.36
2018-08-02T07:38:41.527Z,933.35
2018-08-02T07:39:41.631Z,933.33
2018-08-02T07:40:41.645Z,933.29
2018-08-02T07:41:41.620Z,933.29
2018-08-02T07:42:41.546Z,933.30
2018-08-02T07:43:41.572Z,933.30
2018-08-02T07:44:41.556Z,933.30
2018-08-02T07:45:41.617Z,933.31
2018-08-02T07:46:41.614Z,933.32
2018-08-02T07:47:41.763Z,933.34
2018-08-02T07:48:41.688Z,933.38
2018-08-02T07:49:41.650Z,933.40
2018-08-02T07:50:41.616Z,933.39
2018-08-02T07:51:41.627Z,933.39
2018-08-02T07:52:41.742Z,933.39
2018-08-02T07:53:41.657Z,933.36
2018-08-02T07:54:41.673Z,933.38
2018-08-02T07:55:41.666Z,933.37
2018-08-02T07:56:41.694Z,933.41
2018-08-02T07:57:41.713Z,933.46
2018-08-02T07:58:41.813Z,933.51
2018-08-02T07:59:41.725Z,933.57
2018-08-02T08:00:41.723Z,933.64
2018-08-02T08:01:41.781Z,933.63
2018-08-02T08:02:41.747Z,933.61
2018-08-02T08:03:41.771Z,933.55
2018-08-02T08:04:42.012Z,933.59
2018-08-02T08:05:41.781Z,933.62
2018-08-02T08:06:41.909Z,933.62
2018-08-02T08:07:41.807Z,933.60
2018-08-02T08:08:41.929Z,933.64
2018-08-02T08:09:42.097Z,933.61
2018-08-02T08:10:41.827Z,933.67
2018-08-02T08:11:41.852Z,933.74
2018-08-02T08:12:41.866Z,933.81
2018-08-02T08:13:41.986Z,933.90
2018-08-02T08:14:41.866Z,933.98
2018-08-02T08:15:41.931Z,934.03
2018-08-02T08:16:41.893Z,934.09
2018-08-02T08:17:41.901Z,934.08
2018-08-02T08:18:42.002Z,934.06
2018-08-02T08:19:42.047Z,934.07
2018-08-02T08:20:41.939Z,934.01
2018-08-02T08:21:42.005Z,933.99
2018-08-02T08:22:41.965Z,933.93
2018-08-02T08:23:42.066Z,933.85
2018-08-02T08:24:41.978Z,933.82
2018-08-02T08:25:41.981Z,933.83
2018-08-02T08:26:42.004Z,933.82
2018-08-02T08:27:41.996Z,933.82
2018-08-02T08:28:42.237Z,933.90
2018-08-02T08:29:42.024Z,933.98
2018-08-02T08:30:42.041Z,934.07
2018-08-02T08:31:42.183Z,934.13
2018-08-02T08:32:42.052Z,934.23
2018-08-02T08:33:42.171Z,934.27
2018-08-02T08:34:42.221Z,934.32
2018-08-02T08:35:42.083Z,934.36
2018-08-02T08:36:42.117Z,934.36
2018-08-02T08:37:42.163Z,934.46
2018-08-02T08:38:42.239Z,934.44
2018-08-02T08:39:42.150Z,934.36
2018-08-02T08:40:42.265Z,934.27
2018-08-02T08:41:42.155Z,934.23
2018-08-02T08:42:42.286Z,934.13
2018-08-02T08:43:42.267Z,934.11
2018-08-02T08:44:42.196Z,934.15
2018-08-02T08:45:42.202Z,934.13
2018-08-02T08:46:42.201Z,934.08
2018-08-02T08:47:42.224Z,934.07
2018-08-02T08:48:42.286Z,934.01
2018-08-02T08:49:42.291Z,933.91
2018-08-02T08:50:42.265Z,933.83
2018-08-02T08:51:42.507Z,933.76
2018-08-02T08:52:42.263Z,933.69
2018-08-02T08:53:42.275Z,933.68
2018-08-02T08:54:42.281Z,933.67
2018-08-02T08:55:42.296Z,933.73
2018-08-02T08:56:42.467Z,933.67
2018-08-02T08:57:42.320Z,933.70
2018-08-02T08:58:42.347Z,933.73
2018-08-02T08:59:42.363Z,933.74
2018-08-02T09:00:42.353Z,933.72
2018-08-02T09:01:42.474Z,933.75
2018-08-02T09:02:42.392Z,933.77
2018-08-02T09:03:42.398Z,933.82
2018-08-02T09:04:42.518Z,933.83
2018-08-02T09:05:42.414Z,933.89
2018-08-02T09:06:42.409Z,933.88
2018-08-02T09:07:42.519Z,933.90
2018-08-02T09:08:42.428Z,933.87
2018-08-02T09:09:42.437Z,933.89
2018-08-02T09:10:42.479Z,933.88
2018-08-02T09:11:42.587Z,933.90
2018-08-02T09:12:42.569Z,933.93
2018-08-02T09:13:42.503Z,933.92
2018-08-02T09:14:42.534Z,933.93
2018-08-02T09:15:42.503Z,933.95
2018-08-02T09:16:42.506Z,933.96
2018-08-02T09:17:42.647Z,934.01
2018-08-02T09:18:42.537Z,934.00
2018-08-02T09:19:42.555Z,934.03
2018-08-02T09:20:42.681Z,934.07
2018-08-02T09:21:42.590Z,934.10
2018-08-02T09:22:42.693Z,934.14
2018-08-02T09:23:42.595Z,934.17
2018-08-02T09:24:42.614Z,934.20
2018-08-02T09:25:42.634Z,934.20
2018-08-02T09:26:42.663Z,934.23
2018-08-02T09:27:42.706Z,934.25
2018-08-02T09:28:42.758Z,934.25
2018-08-02T09:29:42.647Z,934.25
2018-08-02T09:30:42.782Z,934.29
2018-08-02T09:31:42.867Z,934.29
2018-08-02T09:32:42.898Z,934.29
2018-08-02T09:33:42.812Z,934.31
2018-08-02T09:34:42.827Z,934.34
2018-08-02T09:35:42.753Z,934.34
2018-08-02T09:36:42.809Z,934.35
2018-08-02T09:37:42.738Z,934.36
2018-08-02T09:38:42.776Z,934.34
2018-08-02T09:39:42.768Z,934.32
2018-08-02T09:40:42.779Z,934.31
2018-08-02T09:41:42.871Z,934.31
2018-08-02T09:42:42.795Z,934.33
2018-08-02T09:43:42.797Z,934.35
2018-08-02T09:44:42.923Z,934.32
2018-08-02T09:45:42.817Z,934.34
2018-08-02T09:46:43.167Z,934.35
2018-08-02T09:47:42.821Z,934.41
2018-08-02T09:48:42.968Z,934.42
2018-08-02T09:49:42.871Z,934.44
2018-08-02T09:50:42.986Z,934.45
2018-08-02T09:51:43.137Z,934.43
2018-08-02T09:52:42.906Z,934.40
2018-08-02T09:53:42.890Z,934.44
2018-08-02T09:54:42.912Z,934.44
2018-08-02T09:55:42.973Z,934.46
2018-08-02T09:56:43.125Z,934.48
2018-08-02T09:57:43.058Z,934.50
2018-08-02T09:58:42.943Z,934.56
2018-08-02T09:59:43.007Z,934.59
2018-08-02T10:00:42.974Z,934.60
2018-08-02T10:01:43.088Z,934.59
2018-08-02T10:02:43.022Z,934.58
2018-08-02T10:03:43.013Z,934.55
2018-08-02T10:04:43.007Z,934.54
2018-08-02T10:05:43.028Z,934.53
2018-08-02T10:06:43.221Z,934.59
2018-08-02T10:07:43.071Z,934.65
2018-08-02T10:08:43.173Z,934.70
2018-08-02T10:09:43.060Z,934.72
2018-08-02T10:10:43.095Z,934.77
2018-08-02T10:11:43.229Z,934.81
2018-08-02T10:12:43.100Z,934.80
2018-08-02T10:13:43.111Z,934.76
2018-08-02T10:14:43.108Z,934.74
2018-08-02T10:15:43.128Z,934.76
2018-08-02T10:16:43.506Z,934.77
2018-08-02T10:17:43.163Z,934.73
2018-08-02T10:18:43.167Z,934.75
2018-08-02T10:19:43.159Z,934.68
2018-08-02T10:20:43.184Z,934.71
2018-08-02T10:21:43.283Z,934.69
2018-08-02T10:22:43.192Z,934.68
2018-08-02T10:23:43.228Z,934.67
2018-08-02T10:24:43.226Z,934.66
2018-08-02T10:25:43.248Z,934.61
2018-08-02T10:26:43.347Z,934.61
2018-08-02T10:27:43.258Z,934.61
2018-08-02T10:28:43.256Z,934.67
2018-08-02T10:29:43.266Z,934.64
2018-08-02T10:30:43.305Z,934.71
2018-08-02T10:31:43.390Z,934.74
2018-08-02T10:32:43.337Z,934.80
2018-08-02T10:33:43.357Z,934.84
2018-08-02T10:34:43.448Z,934.90
2018-08-02T10:35:43.341Z,934.96
2018-08-02T10:36:43.490Z,934.95
2018-08-02T10:37:43.417Z,934.95
2018-08-02T10:38:43.394Z,934.99
2018-08-02T10:39:43.411Z,935.01
2018-08-02T10:40:43.522Z,935.00
2018-08-02T10:41:43.667Z,935.02
2018-08-02T10:42:43.439Z,935.03
2018-08-02T10:43:43.549Z,934.99
2018-08-02T10:44:43.461Z,934.98
2018-08-02T10:45:43.445Z,934.99
2018-08-02T10:46:43.588Z,934.93
2018-08-02T10:47:43.726Z,934.99
2018-08-02T10:48:43.504Z,935.04
2018-08-02T10:49:43.529Z,935.09
2018-08-02T10:50:43.503Z,935.05
2018-08-02T10:51:43.505Z,935.10
2018-08-02T10:52:43.588Z,935.14
2018-08-02T10:53:43.544Z,935.12
2018-08-02T10:54:43.555Z,935.12
2018-08-02T10:55:43.620Z,935.05
2018-08-02T10:56:43.579Z,935.07
2018-08-02T10:57:43.952Z,935.10
2018-08-02T10:58:43.595Z,935.08
2018-08-02T10:59:43.644Z,935.12
2018-08-02T11:00:43.615Z,935.13
2018-08-02T11:01:43.634Z,935.12
2018-08-02T11:02:43.748Z,935.15
2018-08-02T11:03:43.657Z,935.14
2018-08-02T11:04:43.662Z,935.12
2018-08-02T11:05:43.685Z,935.08
2018-08-02T11:06:43.808Z,935.12
2018-08-02T11:07:43.958Z,935.12
2018-08-02T11:08:43.718Z,935.16
2018-08-02T11:09:43.763Z,935.17
2018-08-02T11:10:43.771Z,935.14
2018-08-02T11:11:43.744Z,935.20
2018-08-02T11:12:44.027Z,935.22
2018-08-02T11:13:43.883Z,935.26
2018-08-02T11:14:43.764Z,935.27
2018-08-02T11:15:43.817Z,935.28
2018-08-02T11:16:43.793Z,935.28
2018-08-02T11:17:43.900Z,935.27
2018-08-02T11:18:43.828Z,935.31
2018-08-02T11:19:43.835Z,935.26
2018-08-02T11:20:43.834Z,935.26
2018-08-02T11:21:43.973Z,935.24
2018-08-02T11:22:44.094Z,935.28
2018-08-02T11:23:43.996Z,935.28
2018-08-02T11:24:43.876Z,935.30
2018-08-02T11:25:43.920Z,935.29
2018-08-02T11:26:43.932Z,935.28
2018-08-02T11:27:44.033Z,935.31
2018-08-02T11:28:43.941Z,935.30
2018-08-02T11:29:43.951Z,935.30
2018-08-02T11:30:43.962Z,935.37
2018-08-02T11:31:43.981Z,935.36
2018-08-02T11:32:44.069Z,935.33
2018-08-02T11:33:44.054Z,935.37
2018-08-02T11:34:44.008Z,935.37
2018-08-02T11:35:44.008Z,935.41
2018-08-02T11:36:44.067Z,935.39
2018-08-02T11:37:44.127Z,935.42
2018-08-02T11:38:44.040Z,935.43
2018-08-02T11:39:44.065Z,935.43
2018-08-02T11:40:44.118Z,935.41
2018-08-02T11:41:44.108Z,935.43
2018-08-02T11:42:44.206Z,935.43
2018-08-02T11:43:44.119Z,935.43
2018-08-02T11:44:44.116Z,935.45
2018-08-02T11:45:44.145Z,935.47
2018-08-02T11:46:44.156Z,935.52
2018-08-02T11:47:44.250Z,935.54
2018-08-02T11:48:44.170Z,935.52
2018-08-02T11:49:44.180Z,935.54
2018-08-02T11:50:44.228Z,935.56
2018-08-02T11:51:44.215Z,935.59
2018-08-02T11:52:44.414Z,935.60
2018-08-02T11:53:44.220Z,935.65
2018-08-02T11:54:44.365Z,935.59
2018-08-02T11:55:44.270Z,935.61
2018-08-02T11:56:44.333Z,935.59
2018-08-02T11:57:44.460Z,935.63
2018-08-02T11:58:44.301Z,935.60
2018-08-02T11:59:44.341Z,935.64
2018-08-02T12:00:44.370Z,935.58
2018-08-02T12:01:44.356Z,935.64
2018-08-02T12:02:44.353Z,935.62
2018-08-02T12:03:44.438Z,935.66
2018-08-02T12:04:44.564Z,935.65
2018-08-02T12:05:44.378Z,935.64
2018-08-02T12:06:44.391Z,935.67
2018-08-02T12:07:44.413Z,935.67
2018-08-02T12:08:44.436Z,935.61
2018-08-02T12:09:44.630Z,935.68
2018-08-02T12:10:44.442Z,935.67
2018-08-02T12:11:44.495Z,935.66
2018-08-02T12:12:44.455Z,935.65
2018-08-02T12:13:44.469Z,935.65
2018-08-02T12:14:44.862Z,935.68
2018-08-02T12:15:44.504Z,935.68
2018-08-02T12:16:44.622Z,935.68
2018-08-02T12:17:44.644Z,935.67
2018-08-02T12:18:44.544Z,935.80
2018-08-02T12:19:44.820Z,935.78
2018-08-02T12:20:44.576Z,935.79
2018-08-02T12:21:44.588Z,935.77
2018-08-02T12:22:44.599Z,935.77
2018-08-02T12:23:44.624Z,935.79
2018-08-02T12:24:44.859Z,935.76
2018-08-02T12:25:44.681Z,935.78
2018-08-02T12:26:44.631Z,935.80
2018-08-02T12:27:44.636Z,935.80
2018-08-02T12:28:44.655Z,935.82
2018-08-02T12:29:44.802Z,935.81